Flight Track Log - Related Links

Times and Time Zones

All times are in EDT time to prevent confusion due to time zone crossing. See the ASQ5421 flight status page for this flight to view local times or setup timezone preferences in your user account.

Time Position Orientation Groundspeed Altitude Reporting Facility
EDT Latitude Longitude Course Direction KTS MPH feet Rate Location/Type
Thu 10:14:41 AM 33.6347 -84.5103 268° West 368 423 3,200  Level Atlanta Center
Thu 10:15:41 AM 33.6322 -84.5978 268° West 308 354 6,500 3,000 Climbing Atlanta Center
Thu 10:16:41 AM 33.6131 -84.6725 253° West 267 307 9,200 1,750 Climbing Atlanta Center
Thu 10:17:41 AM 33.5294 -84.6967 194° South 324 373 10,000 500 Climbing Atlanta Center
Thu 10:18:41 AM 33.4272 -84.6861 175° South 376 433 10,200 1,000 Climbing Atlanta Center
Thu 10:19:41 AM 33.3378 -84.6106 145° Southeast 376 433 12,000 1,600 Climbing Atlanta Center
Thu 10:20:41 AM 33.2694 -84.5258 134° Southeast 386 444 13,400 1,450 Climbing Atlanta Center
Thu 10:21:41 AM 33.1906 -84.4211 132° Southeast 394 453 14,900 1,350 Climbing Atlanta Center
Thu 10:22:41 AM 33.1094 -84.3192 134° Southeast 421 484 16,100 1,200 Climbing Atlanta Center
Thu 10:23:41 AM 33.0261 -84.2197 135° Southeast 428 493 17,300 1,100 Climbing Atlanta Center
Thu 10:24:41 AM 32.9069 -84.1650 159° South 411 473 18,300 1,050 Climbing Atlanta Center
Thu 10:25:41 AM 32.7964 -84.1203 161° South 412 474 19,400 1,050 Climbing Atlanta Center
Thu 10:26:41 AM 32.6858 -84.0708 159° South 419 482 20,400 1,000 Climbing Atlanta Center
Thu 10:27:41 AM 32.5731 -84.0264 162° South 424 488 21,400 1,000 Climbing Atlanta Center
Thu 10:28:41 AM 32.4625 -83.9772 159° South 424 488 22,400 800 Climbing Atlanta Center
Thu 10:29:41 AM 32.3497 -83.9283 160° South 429 494 23,000 570 Climbing Atlanta Center
Thu 10:31:40 AM 32.1297 -83.8369 161° South 435 501 24,100 570 Climbing Jacksonville Center
Thu 10:32:40 AM 32.0131 -83.7869 160° South 446 513 24,700 454 Climbing Jacksonville Center
Thu 10:33:39 AM 31.8797 -83.7294 160° South 452 520 25,000 150 Climbing Jacksonville Center
Thu 10:34:40 AM 31.7569 -83.6744 159° South 467 537 25,000  Level Jacksonville Center
Thu 10:35:39 AM 31.6300 -83.6294 163° South 483 556 25,000  Level Jacksonville Center
Thu 10:36:39 AM 31.5111 -83.5797 160° South 483 556 25,000 -99 Level Jacksonville Center
Thu 10:37:40 AM 31.3758 -83.5058 155° Southeast 483 556 24,800 -347 Descending Jacksonville Center
Thu 10:38:40 AM 31.2572 -83.4175 148° Southeast 488 562 24,300 -400 Descending Jacksonville Center
Thu 10:39:40 AM 31.1386 -83.3269 147° Southeast 509 586 24,000 -150 Descending Jacksonville Center
Thu 10:40:40 AM 31.0219 -83.2417 148° Southeast 509 586 24,000  Level Jacksonville Center
Thu 10:41:40 AM 30.9072 -83.1564 147° Southeast 509 586 24,000  Level Jacksonville Center
Thu 10:42:39 AM 30.7967 -83.0717 147° Southeast 497 572 24,000  Level Jacksonville Center
Thu 10:43:40 AM 30.6883 -82.9917 148° Southeast 481 554 24,000  Level Jacksonville Center
Thu 10:44:39 AM 30.5756 -82.9119 149° Southeast 476 548 24,000 -151 Level Jacksonville Center
Thu 10:45:39 AM 30.4647 -82.8300 147° Southeast 476 548 23,700 -942 Descending Jacksonville Center
Thu 10:46:40 AM 30.3519 -82.7481 148° Southeast 476 548 22,100 -1,537 Descending Jacksonville Center
Thu 10:47:40 AM 30.2392 -82.6667 148° Southeast 476 548 20,600 -1,471 Descending Jacksonville Center
Thu 10:48:22 AM 30.1597 -82.6139 150° Southeast 474 545 19,600 -1,424 Descending Jacksonville Center
Thu 10:48:39 AM 30.1264 -82.5900 148° Southeast 476 548 19,200 -1,846 Descending Jacksonville Center
Thu 10:49:40 AM 30.0258 -82.5158 147° Southeast 458 527 17,200 -2,294 Descending Jacksonville Center
Thu 10:50:55 AM 29.9192 -82.4444 150° Southeast 333 383 14,000 -2,521 Descending Jacksonville Center
Thu 10:51:39 AM 29.8689 -82.4017 144° Southeast 370 426 12,200 -2,955 Descending Jacksonville Center
Thu 10:52:02 AM 29.8375 -82.3731 142° Southeast 304 350 10,700 11,607 Descending Jacksonville Center
Thu 10:52:40 AM 29.8225 -82.3203 108° East 290 334 24,000 -3,049 Climbing Jacksonville Center
Thu 10:53:03 AM 29.8142 -82.2844 105° East 300 345 7,600 -18,305 Descending Jacksonville Center
Thu 10:53:39 AM 29.7992 -82.2294 107° East 277 319 6,000 -2,852 Descending Jacksonville Center
Thu 10:54:04 AM 29.7908 -82.1986 107° East 279 321 4,700 -2,800 Descending Jacksonville Center
Thu 10:54:39 AM 29.7778 -82.1483 107° East 277 319 3,200 -1,672 Descending Jacksonville Center
Thu 10:55:05 AM 29.7467 -82.1414 169° South 228 262 3,000 -393 Descending Jacksonville Center
Thu 10:55:40 AM 29.7278 -82.1489 199° South 194 223 2,800 -1,075 Descending Jacksonville Center
Thu 10:56:12 AM 29.6944 -82.1778 217° Southwest 203 234 1,800 -1,200 Descending Jacksonville Center
Thu 10:56:40 AM 29.6800 -82.1872 210° Southwest 169 194 1,600 -885 Descending Jacksonville Center
Thu 10:57:13 AM 29.6781 -82.2208 266° West 150 173 900 -600 Descending Jacksonville Center
Thu 10:57:40 AM 29.6511 -82.2258 189° South 149 171 1,000 222 Climbing Jacksonville Center
Thu 10:59:00 AM 29.6833 -82.2667 North  Level FlightAware Approximate

Login

Don't have an account? Register now (free) for customized features, flight alerts, and more!